Time;durP1;ratioP1;P1;durP2;ratioP2;P2;SDS_P1;SDS_P2;PMS_P1;PMS_P2;Temp;Humidity;BMP_temperature;BMP_pressure;BME280_temperature;BME280_humidity;BME280_pressure;Samples;Min_cycle;Max_cycle;Signal;HPM_P1;HPM_P2
2023/03/16 00:02:06;;;;;;;8.48;3.90;;;;;;;;;;6214899;23;20027;-63
2023/03/16 00:04:36;;;;;;;7.28;3.03;;;;;;;;;;6213942;23;20012;-63
2023/03/16 00:07:02;;;;;;;6.20;3.60;;;;;;;;;;6214193;23;20362;-63
2023/03/16 00:09:29;;;;;;;9.73;3.65;;;;;;;;;;6214432;23;20000;-63
2023/03/16 00:12:01;;;;;;;7.65;3.60;;;;;;;;;;6214240;23;20314;-63
2023/03/16 00:14:28;;;;;;;8.90;4.30;;;;;;;;;;6214239;23;20463;-63
2023/03/16 00:16:54;;;;;;;7.00;2.83;;;;;;;;;;6214340;23;20008;-68
2023/03/16 00:19:23;;;;;;;6.20;2.45;;;;;;;;;;6213971;23;20098;-63
2023/03/16 00:21:50;;;;;;;9.35;3.97;;;;;;;;;;6213966;23;20012;-63
2023/03/16 00:24:17;;;;;;;6.38;2.92;;;;;;;;;;6213864;23;20032;-63
2023/03/16 00:26:44;;;;;;;8.73;3.70;;;;;;;;;;6214290;23;20062;-63
2023/03/16 00:29:10;;;;;;;8.93;3.92;;;;;;;;;;6213872;23;20083;-63
2023/03/16 00:31:37;;;;;;;7.47;3.83;;;;;;;;;;6214212;23;20017;-63
2023/03/16 00:34:03;;;;;;;7.80;3.22;;;;;;;;;;6213687;23;20325;-63
2023/03/16 00:36:29;;;;;;;7.68;3.33;;;;;;;;;;6214202;23;20005;-63
2023/03/16 00:38:55;;;;;;;7.18;3.20;;;;;;;;;;6214161;23;20492;-63
2023/03/16 00:41:21;;;;;;;8.95;3.10;;;;;;;;;;6214377;23;20011;-63
2023/03/16 00:43:48;;;;;;;9.02;3.63;;;;;;;;;;6214170;23;20015;-62
2023/03/16 00:46:15;;;;;;;5.40;2.30;;;;;;;;;;6213123;23;20051;-63
2023/03/16 00:48:43;;;;;;;6.97;2.72;;;;;;;;;;6213621;23;20028;-64
2023/03/16 00:51:11;;;;;;;10.13;3.13;;;;;;;;;;6214069;23;20047;-68
2023/03/16 00:53:38;;;;;;;5.95;2.80;;;;;;;;;;6213875;23;20325;-66
2023/03/16 00:56:04;;;;;;;5.72;2.13;;;;;;;;;;6214084;23;20441;-63
2023/03/16 00:58:36;;;;;;;7.05;2.67;;;;;;;;;;6213831;23;20402;-62
2023/03/16 01:01:02;;;;;;;4.80;2.13;;;;;;;;;;6213770;23;20419;-65
2023/03/16 01:03:29;;;;;;;6.28;2.97;;;;;;;;;;6214103;23;20015;-64
2023/03/16 01:05:58;;;;;;;7.55;2.85;;;;;;;;;;6213853;23;20009;-70
2023/03/16 01:08:26;;;;;;;5.43;2.72;;;;;;;;;;6213931;23;19997;-66
2023/03/16 01:10:53;;;;;;;6.70;3.20;;;;;;;;;;6214109;23;20066;-63
2023/03/16 01:13:20;;;;;;;6.05;2.47;;;;;;;;;;6213600;23;20464;-63
2023/03/16 01:15:46;;;;;;;5.50;2.53;;;;;;;;;;6213649;23;20455;-62
2023/03/16 01:18:13;;;;;;;6.03;2.08;;;;;;;;;;6213615;23;20023;-63
2023/03/16 01:20:39;;;;;;;6.55;2.83;;;;;;;;;;6213162;23;20460;-63
2023/03/16 01:23:05;;;;;;;5.97;2.70;;;;;;;;;;6213444;23;20001;-63
2023/03/16 01:25:31;;;;;;;4.38;1.95;;;;;;;;;;6213621;23;20031;-63
2023/03/16 01:27:57;;;;;;;5.18;2.88;;;;;;;;;;6213563;23;20001;-66
2023/03/16 01:30:23;;;;;;;6.40;3.00;;;;;;;;;;6213262;23;20086;-66
2023/03/16 01:32:49;;;;;;;6.38;3.08;;;;;;;;;;6213722;23;20043;-63
2023/03/16 01:35:16;;;;;;;6.50;2.60;;;;;;;;;;6213695;23;20007;-63
2023/03/16 01:37:42;;;;;;;5.95;2.85;;;;;;;;;;6213780;23;20071;-63
2023/03/16 01:40:10;;;;;;;6.68;2.60;;;;;;;;;;6212964;23;20001;-63
2023/03/16 01:42:46;;;;;;;7.13;3.45;;;;;;;;;;6213233;23;20401;-62
2023/03/16 01:45:31;;;;;;;6.82;3.20;;;;;;;;;;6213236;23;20075;-63
2023/03/16 01:47:57;;;;;;;9.25;3.72;;;;;;;;;;6213612;23;20015;-63
2023/03/16 01:50:24;;;;;;;7.30;3.00;;;;;;;;;;6213400;23;20004;-63
2023/03/16 01:52:51;;;;;;;5.80;3.10;;;;;;;;;;6213093;23;20050;-63
2023/03/16 01:55:17;;;;;;;7.50;3.17;;;;;;;;;;6213286;23;20011;-62
2023/03/16 01:57:46;;;;;;;7.18;3.22;;;;;;;;;;6213199;23;20088;-61
2023/03/16 02:00:18;;;;;;;8.20;3.28;;;;;;;;;;6213253;23;20004;-63
2023/03/16 02:02:47;;;;;;;6.97;3.65;;;;;;;;;;6213181;23;20379;-62
2023/03/16 02:05:24;;;;;;;6.20;3.20;;;;;;;;;;6213325;23;20363;-67
2023/03/16 02:07:51;;;;;;;8.10;3.53;;;;;;;;;;6213390;23;20001;-62
2023/03/16 02:10:19;;;;;;;9.88;3.95;;;;;;;;;;6213282;23;20016;-63
2023/03/16 02:12:46;;;;;;;6.68;3.38;;;;;;;;;;6213374;23;20710;-62
2023/03/16 02:15:13;;;;;;;7.65;3.47;;;;;;;;;;6212511;23;20020;-62
2023/03/16 02:17:41;;;;;;;6.18;2.70;;;;;;;;;;6213003;23;20004;-68
2023/03/16 02:20:22;;;;;;;6.72;2.92;;;;;;;;;;6212747;23;20016;-69
2023/03/16 02:22:52;;;;;;;8.45;3.33;;;;;;;;;;6212868;23;20016;-62
2023/03/16 02:25:19;;;;;;;5.70;2.63;;;;;;;;;;6212756;23;20429;-62
2023/03/16 02:28:03;;;;;;;6.47;2.35;;;;;;;;;;6213027;23;20007;-62
2023/03/16 02:30:30;;;;;;;6.60;2.42;;;;;;;;;;6212753;23;20052;-62
2023/03/16 02:32:56;;;;;;;3.90;2.40;;;;;;;;;;6213168;23;20324;-62
2023/03/16 02:35:22;;;;;;;5.53;2.28;;;;;;;;;;6213114;23;20004;-63
2023/03/16 02:37:48;;;;;;;5.78;2.67;;;;;;;;;;6212575;23;20005;-62
2023/03/16 02:40:33;;;;;;;6.95;2.70;;;;;;;;;;6212770;23;20043;-62
2023/03/16 02:43:10;;;;;;;4.75;2.60;;;;;;;;;;6212801;23;20325;-62
2023/03/16 02:45:36;;;;;;;7.05;2.75;;;;;;;;;;6212358;23;20107;-62
2023/03/16 02:48:06;;;;;;;7.75;2.53;;;;;;;;;;6212553;23;20024;-62
2023/03/16 02:50:32;;;;;;;4.78;2.15;;;;;;;;;;6212866;23;20051;-61
2023/03/16 02:52:58;;;;;;;3.20;1.35;;;;;;;;;;6212804;23;20024;-62
2023/03/16 02:55:24;;;;;;;5.10;2.22;;;;;;;;;;6212694;23;20028;-61
2023/03/16 02:57:51;;;;;;;7.00;2.92;;;;;;;;;;6212589;23;20372;-62
2023/03/16 03:00:18;;;;;;;4.90;2.00;;;;;;;;;;6212386;23;20013;-62
2023/03/16 03:02:44;;;;;;;4.05;2.28;;;;;;;;;;6214775;23;20394;-61
2023/03/16 03:05:11;;;;;;;6.93;2.70;;;;;;;;;;6214032;23;20009;-66
2023/03/16 03:07:37;;;;;;;6.78;2.20;;;;;;;;;;6212516;23;20051;-61
2023/03/16 03:10:04;;;;;;;3.78;1.85;;;;;;;;;;6212058;23;20009;-62
2023/03/16 03:12:31;;;;;;;4.07;2.13;;;;;;;;;;6212769;23;20008;-63
2023/03/16 03:14:58;;;;;;;3.33;1.70;;;;;;;;;;6212402;23;19997;-63
2023/03/16 03:17:28;;;;;;;6.32;2.20;;;;;;;;;;6212173;23;20012;-61
2023/03/16 03:19:58;;;;;;;2.95;1.45;;;;;;;;;;6212199;23;20011;-63
2023/03/16 03:22:25;;;;;;;5.03;1.90;;;;;;;;;;6212433;23;20099;-61
2023/03/16 03:24:51;;;;;;;5.90;2.00;;;;;;;;;;6212747;23;20001;-63
2023/03/16 03:27:17;;;;;;;5.05;2.25;;;;;;;;;;6212012;23;20356;-63
2023/03/16 03:29:43;;;;;;;6.55;2.38;;;;;;;;;;6212328;23;20424;-62
2023/03/16 03:32:10;;;;;;;7.22;2.50;;;;;;;;;;6212727;23;20008;-63
2023/03/16 03:34:36;;;;;;;4.72;2.33;;;;;;;;;;6212395;23;20005;-63
2023/03/16 03:37:02;;;;;;;6.13;2.60;;;;;;;;;;6212760;23;20084;-62
2023/03/16 03:39:29;;;;;;;5.75;2.50;;;;;;;;;;6212703;23;20005;-64
2023/03/16 03:41:55;;;;;;;6.45;2.70;;;;;;;;;;6212680;23;20054;-64
2023/03/16 03:44:21;;;;;;;7.35;3.20;;;;;;;;;;6212604;23;20008;-62
2023/03/16 03:46:47;;;;;;;7.43;3.00;;;;;;;;;;6212568;23;20005;-63
2023/03/16 03:49:14;;;;;;;6.30;3.05;;;;;;;;;;6212594;23;20012;-60
2023/03/16 03:51:40;;;;;;;9.07;3.35;;;;;;;;;;6212365;23;20017;-69
2023/03/16 03:54:06;;;;;;;4.55;2.92;;;;;;;;;;6212765;23;20036;-62
2023/03/16 03:56:32;;;;;;;11.88;3.45;;;;;;;;;;6212612;23;19996;-62
2023/03/16 03:58:58;;;;;;;7.40;3.22;;;;;;;;;;6212381;23;20445;-62
2023/03/16 04:01:24;;;;;;;10.13;3.75;;;;;;;;;;6212516;23;20012;-70
2023/03/16 04:03:50;;;;;;;8.00;3.35;;;;;;;;;;6212481;23;20008;-61
2023/03/16 04:06:16;;;;;;;9.10;4.10;;;;;;;;;;6212399;23;20005;-61
2023/03/16 04:08:42;;;;;;;7.93;3.75;;;;;;;;;;6212688;23;20102;-62
2023/03/16 04:11:08;;;;;;;8.90;3.80;;;;;;;;;;6212290;23;20013;-62
2023/03/16 04:13:34;;;;;;;9.27;3.80;;;;;;;;;;6212480;23;20063;-62
2023/03/16 04:16:01;;;;;;;7.35;3.30;;;;;;;;;;6212342;23;20037;-62
2023/03/16 04:18:28;;;;;;;10.13;3.92;;;;;;;;;;6212770;23;20004;-62
2023/03/16 04:20:54;;;;;;;9.85;3.65;;;;;;;;;;6212788;23;20025;-62
2023/03/16 04:23:21;;;;;;;9.10;3.40;;;;;;;;;;6213523;23;20416;-62
2023/03/16 04:25:47;;;;;;;9.68;3.60;;;;;;;;;;6212771;23;20123;-62
2023/03/16 04:28:16;;;;;;;6.45;3.33;;;;;;;;;;6213276;23;20001;-63
2023/03/16 04:30:42;;;;;;;6.03;3.30;;;;;;;;;;6186434;23;20500;-62
2023/03/16 04:33:08;;;;;;;7.68;3.30;;;;;;;;;;6214325;23;20001;-63
2023/03/16 04:35:34;;;;;;;6.55;3.42;;;;;;;;;;6214316;23;19996;-63
2023/03/16 04:38:01;;;;;;;8.90;3.50;;;;;;;;;;6213884;23;20439;-62
2023/03/16 04:40:29;;;;;;;7.88;3.47;;;;;;;;;;6213596;23;20007;-62
2023/03/16 04:42:55;;;;;;;8.10;3.50;;;;;;;;;;6214328;23;20008;-62
2023/03/16 04:45:21;;;;;;;6.97;3.78;;;;;;;;;;6214104;23;20079;-62
2023/03/16 04:47:48;;;;;;;10.00;3.80;;;;;;;;;;6213952;23;20005;-63
2023/03/16 04:50:14;;;;;;;9.30;3.50;;;;;;;;;;6213039;23;20019;-70
2023/03/16 04:52:40;;;;;;;7.97;3.45;;;;;;;;;;6213607;23;20008;-62
2023/03/16 04:55:07;;;;;;;8.98;3.70;;;;;;;;;;6214094;23;20087;-62
2023/03/16 04:57:33;;;;;;;6.68;3.03;;;;;;;;;;6213850;23;20050;-62
2023/03/16 04:59:59;;;;;;;7.78;3.22;;;;;;;;;;6214084;23;20004;-62
2023/03/16 05:02:25;;;;;;;7.78;3.90;;;;;;;;;;6214085;23;20122;-62
2023/03/16 05:04:51;;;;;;;9.23;3.88;;;;;;;;;;6213846;23;20429;-62
2023/03/16 05:07:18;;;;;;;7.15;3.33;;;;;;;;;;6214159;23;20059;-62
2023/03/16 05:09:45;;;;;;;9.13;4.28;;;;;;;;;;6214134;23;20012;-62
2023/03/16 05:12:11;;;;;;;10.63;5.35;;;;;;;;;;6214189;23;20022;-67
2023/03/16 05:14:37;;;;;;;10.43;4.72;;;;;;;;;;6214022;23;20058;-62
2023/03/16 05:17:03;;;;;;;9.63;4.70;;;;;;;;;;6213603;23;20468;-62
2023/03/16 05:19:29;;;;;;;11.80;4.78;;;;;;;;;;6213693;23;20011;-62
2023/03/16 05:21:56;;;;;;;13.88;5.47;;;;;;;;;;6213613;23;20091;-62
2023/03/16 05:24:22;;;;;;;10.40;4.90;;;;;;;;;;6214124;23;20087;-62
2023/03/16 05:26:49;;;;;;;9.70;4.60;;;;;;;;;;6213708;23;20020;-62
2023/03/16 05:29:15;;;;;;;10.07;4.43;;;;;;;;;;6213646;23;20334;-63
2023/03/16 05:31:41;;;;;;;9.23;4.95;;;;;;;;;;6213632;23;20418;-63
2023/03/16 05:34:07;;;;;;;9.95;4.32;;;;;;;;;;6213627;23;19996;-62
2023/03/16 05:36:35;;;;;;;10.77;4.57;;;;;;;;;;6214002;23;20005;-62
2023/03/16 05:39:01;;;;;;;8.98;4.55;;;;;;;;;;6213525;23;20008;-61
2023/03/16 05:41:27;;;;;;;8.55;4.80;;;;;;;;;;6213418;23;20076;-61
2023/03/16 05:43:53;;;;;;;7.65;4.55;;;;;;;;;;6213851;23;20000;-63
2023/03/16 05:46:19;;;;;;;10.18;5.93;;;;;;;;;;6213688;23;20008;-61
2023/03/16 05:48:45;;;;;;;9.15;4.85;;;;;;;;;;6213704;23;20035;-65
2023/03/16 05:51:13;;;;;;;12.18;5.90;;;;;;;;;;6213534;23;20015;-65
2023/03/16 05:53:39;;;;;;;10.07;4.95;;;;;;;;;;6213480;23;20437;-72
2023/03/16 05:56:05;;;;;;;11.32;6.18;;;;;;;;;;6213334;23;20079;-62
2023/03/16 05:58:34;;;;;;;14.52;6.13;;;;;;;;;;6213418;23;20001;-64
2023/03/16 06:01:00;;;;;;;9.20;5.30;;;;;;;;;;6213159;23;20445;-64
2023/03/16 06:03:26;;;;;;;10.95;6.93;;;;;;;;;;6213555;23;20000;-62
2023/03/16 06:05:53;;;;;;;13.45;6.13;;;;;;;;;;6213228;23;20008;-63
2023/03/16 06:08:19;;;;;;;13.48;6.57;;;;;;;;;;6213167;23;19996;-62
2023/03/16 06:10:48;;;;;;;12.40;6.90;;;;;;;;;;6213508;23;20016;-61
2023/03/16 06:13:14;;;;;;;10.43;5.97;;;;;;;;;;6212822;23;20499;-63
2023/03/16 06:15:40;;;;;;;19.08;8.65;;;;;;;;;;6185233;23;20004;-63
2023/03/16 06:18:06;;;;;;;15.10;8.35;;;;;;;;;;6213015;23;20008;-62
2023/03/16 06:20:32;;;;;;;17.52;9.75;;;;;;;;;;6212296;23;20127;-64
2023/03/16 06:22:58;;;;;;;13.82;6.97;;;;;;;;;;6213281;23;20012;-63
2023/03/16 06:25:24;;;;;;;12.55;6.75;;;;;;;;;;6213045;23;20437;-65
2023/03/16 06:27:50;;;;;;;14.57;7.63;;;;;;;;;;6212690;23;20001;-62
2023/03/16 06:30:16;;;;;;;9.38;5.53;;;;;;;;;;6213040;23;20016;-62
2023/03/16 06:32:44;;;;;;;11.15;5.43;;;;;;;;;;6213325;23;20093;-62
2023/03/16 06:35:11;;;;;;;16.33;7.25;;;;;;;;;;6213323;23;20000;-62
2023/03/16 06:37:37;;;;;;;11.60;6.00;;;;;;;;;;6213094;23;20479;-62
2023/03/16 06:40:03;;;;;;;11.85;6.50;;;;;;;;;;6213053;23;20001;-63
2023/03/16 06:42:29;;;;;;;15.75;7.45;;;;;;;;;;6211442;23;20005;-66
2023/03/16 06:44:55;;;;;;;14.18;7.00;;;;;;;;;;6212101;23;20003;-62
2023/03/16 06:47:21;;;;;;;16.80;7.28;;;;;;;;;;6212711;23;20370;-62
2023/03/16 06:49:50;;;;;;;16.98;7.78;;;;;;;;;;6212569;23;20079;-63
2023/03/16 06:52:16;;;;;;;12.75;6.75;;;;;;;;;;6212960;23;20380;-64
2023/03/16 06:54:42;;;;;;;13.45;6.97;;;;;;;;;;6212838;23;20005;-64
2023/03/16 06:57:08;;;;;;;13.27;6.80;;;;;;;;;;6212653;23;20035;-62
2023/03/16 06:59:34;;;;;;;13.40;6.57;;;;;;;;;;6212702;23;20435;-62
2023/03/16 07:02:00;;;;;;;18.95;8.05;;;;;;;;;;6213397;23;20422;-62
2023/03/16 07:04:26;;;;;;;16.50;7.55;;;;;;;;;;6213034;23;20020;-68
2023/03/16 07:06:52;;;;;;;18.88;7.57;;;;;;;;;;6212969;23;20058;-64
2023/03/16 07:09:18;;;;;;;21.92;10.48;;;;;;;;;;6212871;23;20012;-71
2023/03/16 07:11:45;;;;;;;16.55;8.35;;;;;;;;;;6212711;23;20008;-65
2023/03/16 07:14:10;;;;;;;14.93;6.68;;;;;;;;;;6212551;23;20026;-72
2023/03/16 07:16:37;;;;;;;12.57;6.05;;;;;;;;;;6212879;23;20087;-65
2023/03/16 07:19:03;;;;;;;12.68;6.40;;;;;;;;;;6212619;23;19997;-71
2023/03/16 07:21:30;;;;;;;12.40;7.00;;;;;;;;;;6212856;23;20023;-64
2023/03/16 07:23:57;;;;;;;9.35;5.53;;;;;;;;;;6212620;23;20004;-63
2023/03/16 07:26:23;;;;;;;52.42;26.08;;;;;;;;;;6212901;23;20015;-64
2023/03/16 07:28:49;;;;;;;16.35;7.90;;;;;;;;;;6212686;23;20076;-64
2023/03/16 07:31:15;;;;;;;14.57;7.22;;;;;;;;;;6212252;23;20017;-70
2023/03/16 07:33:41;;;;;;;10.18;4.95;;;;;;;;;;6212914;23;20004;-68
2023/03/16 07:36:09;;;;;;;9.45;4.55;;;;;;;;;;6212846;23;20047;-70
2023/03/16 07:38:35;;;;;;;12.48;6.03;;;;;;;;;;6212968;23;20001;-64
2023/03/16 07:41:01;;;;;;;10.88;5.22;;;;;;;;;;6212809;23;20001;-64
2023/03/16 07:43:28;;;;;;;11.65;5.88;;;;;;;;;;6212751;23;20001;-70
2023/03/16 07:45:54;;;;;;;11.05;5.47;;;;;;;;;;6212226;23;20000;-71
2023/03/16 07:48:21;;;;;;;12.30;5.25;;;;;;;;;;6212505;23;20005;-65
2023/03/16 07:50:48;;;;;;;12.60;5.82;;;;;;;;;;6212579;23;20016;-70
2023/03/16 07:53:14;;;;;;;10.63;5.68;;;;;;;;;;6212536;23;20442;-68
2023/03/16 07:55:41;;;;;;;12.68;5.00;;;;;;;;;;6213396;23;20002;-68
2023/03/16 07:58:09;;;;;;;12.82;5.88;;;;;;;;;;6214665;23;20007;-71
2023/03/16 08:00:35;;;;;;;14.27;6.00;;;;;;;;;;6214504;23;20012;-63
2023/03/16 08:03:01;;;;;;;13.55;6.18;;;;;;;;;;6214706;23;20008;-64
2023/03/16 08:05:28;;;;;;;9.43;4.05;;;;;;;;;;6214711;23;20004;-64
2023/03/16 08:07:56;;;;;;;10.30;5.13;;;;;;;;;;6214685;23;20451;-65
2023/03/16 08:10:22;;;;;;;12.65;6.45;;;;;;;;;;6214305;23;20009;-65
2023/03/16 08:12:48;;;;;;;10.70;5.55;;;;;;;;;;6214076;23;20107;-66
2023/03/16 08:15:14;;;;;;;14.15;6.22;;;;;;;;;;6187610;23;20012;-65
2023/03/16 08:17:40;;;;;;;11.57;5.18;;;;;;;;;;6213767;23;20005;-64
2023/03/16 08:20:09;;;;;;;16.40;5.05;;;;;;;;;;6213796;23;20013;-68
2023/03/16 08:22:35;;;;;;;31.33;12.23;;;;;;;;;;6214765;23;20123;-65
2023/03/16 08:25:02;;;;;;;24.55;12.00;;;;;;;;;;6213923;23;19997;-65
2023/03/16 08:27:28;;;;;;;14.75;7.30;;;;;;;;;;6214304;23;20372;-68
2023/03/16 08:29:55;;;;;;;16.85;9.27;;;;;;;;;;6214367;23;20408;-68
2023/03/16 08:32:21;;;;;;;11.80;5.57;;;;;;;;;;6213827;23;20016;-69
2023/03/16 08:34:47;;;;;;;15.57;7.05;;;;;;;;;;6213785;23;20001;-63
2023/03/16 08:37:15;;;;;;;18.65;7.60;;;;;;;;;;6213773;23;20245;-68
2023/03/16 08:39:42;;;;;;;14.73;5.70;;;;;;;;;;6214080;23;20000;-67
2023/03/16 08:42:08;;;;;;;14.00;5.75;;;;;;;;;;6214457;23;20095;-67
2023/03/16 08:44:35;;;;;;;11.32;4.82;;;;;;;;;;6213787;23;19997;-64
2023/03/16 08:47:01;;;;;;;12.23;5.70;;;;;;;;;;6214432;23;20000;-68
2023/03/16 08:49:27;;;;;;;7.13;3.78;;;;;;;;;;6214100;23;20005;-65
2023/03/16 08:51:53;;;;;;;11.95;5.60;;;;;;;;;;6213146;23;20059;-63
2023/03/16 08:54:19;;;;;;;11.15;5.18;;;;;;;;;;6213173;23;19997;-64
2023/03/16 08:56:45;;;;;;;15.30;6.13;;;;;;;;;;6213734;23;20024;-63
2023/03/16 08:59:12;;;;;;;13.13;6.13;;;;;;;;;;6212741;23;20016;-62
2023/03/16 09:01:39;;;;;;;12.73;6.20;;;;;;;;;;6213165;23;20437;-62
2023/03/16 09:04:05;;;;;;;9.57;4.32;;;;;;;;;;6212617;23;20008;-65
2023/03/16 09:06:31;;;;;;;13.25;6.28;;;;;;;;;;6212229;23;20001;-69
2023/03/16 09:08:57;;;;;;;10.23;4.90;;;;;;;;;;6211700;23;19996;-65
2023/03/16 09:11:27;;;;;;;5.22;2.50;;;;;;;;;;6212741;23;20314;-65
2023/03/16 09:13:53;;;;;;;10.77;4.53;;;;;;;;;;6212630;23;20150;-63
2023/03/16 09:16:24;;;;;;;9.43;4.38;;;;;;;;;;6212675;23;20417;-62
2023/03/16 09:18:50;;;;;;;11.43;4.40;;;;;;;;;;6211983;23;20004;-65
2023/03/16 09:21:17;;;;;;;10.27;4.88;;;;;;;;;;6212186;23;20016;-64
2023/03/16 09:23:43;;;;;;;14.07;6.65;;;;;;;;;;6212150;23;20005;-64
2023/03/16 09:26:11;;;;;;;11.10;5.03;;;;;;;;;;6212523;23;20060;-65
2023/03/16 09:28:37;;;;;;;11.27;5.35;;;;;;;;;;6212121;23;20491;-66
2023/03/16 09:31:04;;;;;;;9.75;4.55;;;;;;;;;;6212114;23;20020;-63
2023/03/16 09:33:30;;;;;;;7.35;3.70;;;;;;;;;;6212749;23;20050;-67
2023/03/16 09:35:57;;;;;;;9.40;4.95;;;;;;;;;;6212790;23;20011;-63
2023/03/16 09:38:25;;;;;;;8.63;4.63;;;;;;;;;;6212963;23;20538;-68
2023/03/16 09:40:57;;;;;;;8.55;3.38;;;;;;;;;;6212495;23;20011;-63
2023/03/16 09:43:26;;;;;;;11.32;5.25;;;;;;;;;;6212451;23;20084;-63
2023/03/16 09:45:56;;;;;;;6.28;3.05;;;;;;;;;;6212115;23;20009;-63
2023/03/16 09:48:24;;;;;;;8.73;4.07;;;;;;;;;;6212379;23;20069;-63
2023/03/16 09:50:51;;;;;;;20.58;8.13;;;;;;;;;;6211867;23;20016;-68
2023/03/16 09:53:17;;;;;;;12.00;4.95;;;;;;;;;;6212452;23;20062;-63
2023/03/16 09:55:46;;;;;;;9.48;4.80;;;;;;;;;;6212221;23;20008;-62
2023/03/16 09:58:20;;;;;;;8.65;3.35;;;;;;;;;;6212191;23;20004;-65
2023/03/16 10:00:55;;;;;;;8.95;4.60;;;;;;;;;;6212647;23;20082;-63
2023/03/16 10:03:23;;;;;;;18.35;9.73;;;;;;;;;;6212724;23;20005;-63
2023/03/16 10:05:53;;;;;;;12.05;6.90;;;;;;;;;;6212283;23;20042;-64
2023/03/16 10:08:24;;;;;;;13.48;3.70;;;;;;;;;;6212390;23;20000;-64
2023/03/16 10:11:02;;;;;;;11.77;5.22;;;;;;;;;;6212093;23;20358;-62
2023/03/16 10:13:28;;;;;;;8.95;3.40;;;;;;;;;;6211823;23;20001;-66
2023/03/16 10:15:55;;;;;;;12.20;5.93;;;;;;;;;;6211462;23;20039;-64
2023/03/16 10:18:24;;;;;;;9.55;4.95;;;;;;;;;;6212580;23;20011;-64
2023/03/16 10:20:52;;;;;;;9.70;3.63;;;;;;;;;;6212908;23;20027;-67
2023/03/16 10:23:21;;;;;;;12.23;6.35;;;;;;;;;;6213359;23;19997;-64
2023/03/16 10:25:48;;;;;;;5.75;3.30;;;;;;;;;;6212844;23;20461;-67
2023/03/16 10:28:16;;;;;;;7.13;3.67;;;;;;;;;;6212811;23;20012;-67
2023/03/16 10:30:42;;;;;;;4.30;2.05;;;;;;;;;;6212840;23;20012;-64
2023/03/16 10:33:25;;;;;;;8.50;4.53;;;;;;;;;;6212861;23;20095;-68
2023/03/16 10:35:57;;;;;;;10.90;3.83;;;;;;;;;;6211924;23;20008;-63
2023/03/16 10:38:37;;;;;;;7.22;3.60;;;;;;;;;;6211457;23;20016;-68
2023/03/16 10:41:03;;;;;;;7.20;3.33;;;;;;;;;;6212511;23;20005;-68
2023/03/16 10:43:31;;;;;;;7.63;3.50;;;;;;;;;;6213029;23;20459;-69
2023/03/16 10:46:01;;;;;;;6.90;3.63;;;;;;;;;;6212416;23;20043;-64
2023/03/16 10:48:27;;;;;;;8.65;3.45;;;;;;;;;;6212067;23;20000;-64
2023/03/16 10:50:57;;;;;;;7.43;3.33;;;;;;;;;;6210561;23;20012;-62
2023/03/16 10:53:28;;;;;;;5.75;3.47;;;;;;;;;;6209923;23;20032;-62
2023/03/16 10:55:58;;;;;;;6.78;2.70;;;;;;;;;;6210993;23;20001;-64
2023/03/16 10:58:32;;;;;;;10.63;3.88;;;;;;;;;;6210399;23;20440;-64
2023/03/16 11:00:59;;;;;;;3.60;2.50;;;;;;;;;;6211277;23;20321;-63
2023/03/16 11:03:38;;;;;;;7.32;3.28;;;;;;;;;;6211019;23;20005;-63
2023/03/16 11:06:06;;;;;;;10.77;3.38;;;;;;;;;;6210926;23;20034;-63
2023/03/16 11:08:40;;;;;;;8.05;3.70;;;;;;;;;;6210922;23;20110;-64
2023/03/16 11:11:12;;;;;;;7.97;3.95;;;;;;;;;;6211300;23;20017;-63
2023/03/16 11:13:43;;;;;;;8.07;3.70;;;;;;;;;;6211744;23;20008;-68
2023/03/16 11:16:16;;;;;;;13.90;6.50;;;;;;;;;;6210687;23;20040;-63
2023/03/16 11:18:53;;;;;;;9.27;4.15;;;;;;;;;;6211249;23;20079;-64
2023/03/16 11:21:21;;;;;;;14.50;6.43;;;;;;;;;;6210801;23;20013;-66
2023/03/16 11:23:52;;;;;;;10.30;3.80;;;;;;;;;;6211048;23;20009;-63
2023/03/16 11:26:28;;;;;;;9.07;3.25;;;;;;;;;;6210684;23;20005;-63
2023/03/16 11:29:02;;;;;;;8.85;3.22;;;;;;;;;;6210772;23;20008;-64
2023/03/16 11:31:28;;;;;;;10.10;4.07;;;;;;;;;;6212988;23;20025;-63
2023/03/16 11:33:56;;;;;;;11.13;4.50;;;;;;;;;;6214562;23;20008;-66
2023/03/16 11:36:42;;;;;;;7.95;2.63;;;;;;;;;;6214394;23;20055;-70
2023/03/16 11:39:28;;;;;;;4.95;2.65;;;;;;;;;;6212602;23;20005;-62
2023/03/16 11:41:54;;;;;;;6.18;2.92;;;;;;;;;;6214604;23;20058;-64
2023/03/16 11:44:31;;;;;;;10.10;3.85;;;;;;;;;;6213819;23;20085;-65
2023/03/16 11:47:20;;;;;;;7.72;3.30;;;;;;;;;;6213225;23;20001;-62
2023/03/16 11:49:49;;;;;;;17.67;6.05;;;;;;;;;;6150522;23;20012;-67
2023/03/16 11:52:16;;;;;;;13.02;6.57;;;;;;;;;;6150244;23;20017;-65
2023/03/16 11:55:00;;;;;;;6.75;3.15;;;;;;;;;;6150574;23;20009;-64
2023/03/16 11:57:31;;;;;;;7.22;2.97;;;;;;;;;;6150380;23;20088;-65
2023/03/16 11:59:57;;;;;;;5.63;3.03;;;;;;;;;;6150643;23;20041;-64
2023/03/16 12:02:23;;;;;;;7.82;3.53;;;;;;;;;;6149930;23;20021;-68
2023/03/16 12:04:49;;;;;;;5.25;1.83;;;;;;;;;;6125758;23;20354;-64
2023/03/16 12:07:24;;;;;;;8.48;2.70;;;;;;;;;;6150565;23;20033;-63
2023/03/16 12:09:57;;;;;;;6.68;3.35;;;;;;;;;;6150503;23;20014;-63
2023/03/16 12:12:23;;;;;;;;;;;;;;;;;;6150549;23;20805;-64
2023/03/16 12:14:54;;;;;;;11.93;3.35;;;;;;;;;;6150330;23;19905;-68
2023/03/16 12:17:23;;;;;;;7.95;3.15;;;;;;;;;;6150213;23;20005;-63
2023/03/16 12:20:14;;;;;;;8.77;3.55;;;;;;;;;;6149951;23;20028;-72
2023/03/16 12:22:49;;;;;;;7.03;3.42;;;;;;;;;;6180134;23;20024;-66
2023/03/16 12:25:36;;;;;;;8.13;3.53;;;;;;;;;;6179966;23;20009;-70
2023/03/16 12:28:04;;;;;;;10.43;4.00;;;;;;;;;;6212882;23;20001;-65
2023/03/16 12:30:49;;;;;;;11.98;2.45;;;;;;;;;;6211952;23;20107;-67
2023/03/16 12:33:26;;;;;;;5.25;2.67;;;;;;;;;;6213913;23;20088;-65
2023/03/16 12:35:58;;;;;;;10.07;4.30;;;;;;;;;;6213897;23;20084;-69
2023/03/16 12:38:47;;;;;;;18.30;12.45;;;;;;;;;;6214046;23;20380;-68
2023/03/16 12:41:23;;;;;;;7.63;4.15;;;;;;;;;;6211497;23;19996;-67
2023/03/16 12:43:49;;;;;;;6.57;2.95;;;;;;;;;;6212457;23;20558;-65
2023/03/16 12:46:18;;;;;;;6.70;2.65;;;;;;;;;;6212112;23;19997;-65
2023/03/16 12:48:46;;;;;;;8.57;3.03;;;;;;;;;;6211720;23;20009;-65
2023/03/16 12:51:13;;;;;;;9.05;4.55;;;;;;;;;;6211920;23;20004;-65
2023/03/16 12:53:42;;;;;;;8.68;3.42;;;;;;;;;;6210281;23;20118;-66
2023/03/16 12:56:19;;;;;;;10.00;4.20;;;;;;;;;;6211698;23;20005;-65
2023/03/16 12:58:49;;;;;;;5.70;2.17;;;;;;;;;;6211674;23;20435;-69
2023/03/16 13:01:20;;;;;;;9.38;4.10;;;;;;;;;;6211610;23;20005;-70
2023/03/16 13:03:48;;;;;;;10.32;3.58;;;;;;;;;;6211447;23;20016;-73
2023/03/16 13:06:18;;;;;;;10.93;4.68;;;;;;;;;;6211775;23;20032;-67
2023/03/16 13:08:47;;;;;;;11.80;4.18;;;;;;;;;;6212208;23;20436;-63
2023/03/16 13:11:15;;;;;;;8.20;4.50;;;;;;;;;;6213211;23;20495;-65
2023/03/16 13:13:49;;;;;;;6.35;4.28;;;;;;;;;;6213475;23;20000;-65
2023/03/16 13:16:32;;;;;;;7.45;4.10;;;;;;;;;;6213095;23;20007;-71
2023/03/16 13:18:58;;;;;;;8.13;3.65;;;;;;;;;;6212184;23;20008;-63
2023/03/16 13:21:34;;;;;;;6.97;3.22;;;;;;;;;;6213344;23;20023;-75
2023/03/16 13:24:20;;;;;;;6.20;2.95;;;;;;;;;;6213332;23;20036;-70
2023/03/16 13:26:46;;;;;;;6.03;2.88;;;;;;;;;;6212628;23;20000;-72
2023/03/16 13:29:26;;;;;;;7.72;3.72;;;;;;;;;;6211852;23;20066;-66
2023/03/16 13:31:53;;;;;;;10.95;4.25;;;;;;;;;;6213316;23;20341;-71
2023/03/16 13:34:21;;;;;;;8.50;3.20;;;;;;;;;;6213629;23;20005;-66
2023/03/16 13:36:51;;;;;;;5.97;3.20;;;;;;;;;;6213573;23;20008;-67
2023/03/16 13:39:19;;;;;;;10.20;3.75;;;;;;;;;;6213055;23;20027;-65
2023/03/16 13:41:59;;;;;;;9.20;4.35;;;;;;;;;;6211911;23;20000;-68
2023/03/16 13:44:25;;;;;;;19.75;10.45;;;;;;;;;;6213961;23;20036;-65
2023/03/16 13:46:51;;;;;;;35.50;11.90;;;;;;;;;;6213266;23;20443;-66
2023/03/16 13:49:18;;;;;;;15.02;5.72;;;;;;;;;;6213463;23;20004;-69
2023/03/16 13:51:46;;;;;;;10.45;5.07;;;;;;;;;;6213304;23;20013;-66
2023/03/16 13:54:26;;;;;;;8.35;3.65;;;;;;;;;;6212688;23;20058;-70
2023/03/16 13:56:55;;;;;;;8.45;3.85;;;;;;;;;;6212574;23;20005;-66
2023/03/16 13:59:21;;;;;;;13.57;4.93;;;;;;;;;;6212631;23;20452;-65
2023/03/16 14:01:48;;;;;;;8.45;3.90;;;;;;;;;;6212648;23;20078;-69
2023/03/16 14:04:17;;;;;;;23.00;9.98;;;;;;;;;;6211831;23;20437;-65
2023/03/16 14:07:00;;;;;;;12.68;5.47;;;;;;;;;;6212346;23;20000;-65
2023/03/16 14:09:29;;;;;;;9.90;3.47;;;;;;;;;;6212002;23;20005;-66
2023/03/16 14:11:56;;;;;;;8.50;4.03;;;;;;;;;;6211962;23;20092;-66
2023/03/16 14:14:28;;;;;;;8.57;3.35;;;;;;;;;;6211992;23;20011;-68
2023/03/16 14:17:01;;;;;;;8.43;3.80;;;;;;;;;;6212856;23;20083;-68
2023/03/16 14:19:34;;;;;;;8.27;3.53;;;;;;;;;;6212235;23;20151;-68
2023/03/16 14:22:02;;;;;;;6.38;3.22;;;;;;;;;;6212957;23;20016;-65
2023/03/16 14:24:34;;;;;;;8.75;3.60;;;;;;;;;;6213349;23;20032;-75
2023/03/16 14:27:19;;;;;;;8.07;4.10;;;;;;;;;;6212615;23;20001;-69
2023/03/16 14:29:51;;;;;;;6.25;3.83;;;;;;;;;;6212789;23;19996;-67
2023/03/16 14:32:27;;;;;;;9.57;4.53;;;;;;;;;;6212650;23;20441;-67
2023/03/16 14:34:53;;;;;;;8.45;2.97;;;;;;;;;;6212299;23;20421;-66
2023/03/16 14:37:19;;;;;;;11.77;4.70;;;;;;;;;;6211881;23;20005;-72
2023/03/16 14:39:46;;;;;;;14.30;6.55;;;;;;;;;;6211966;23;20083;-69
2023/03/16 14:42:15;;;;;;;7.97;3.03;;;;;;;;;;6212943;23;20014;-65
2023/03/16 14:44:42;;;;;;;8.13;2.97;;;;;;;;;;6212563;23;20026;-78
2023/03/16 14:47:15;;;;;;;7.13;2.85;;;;;;;;;;6212776;23;20031;-65